Time;durP1;ratioP1;P1;durP2;ratioP2;P2;SDS_P1;SDS_P2;PMS_P1;PMS_P2;Temp;Humidity;BMP_temperature;BMP_pressure;BME280_temperature;BME280_humidity;BME280_pressure;Samples;Min_cycle;Max_cycle;Signal;HPM_P1;HPM_P2
2021/05/21 00:00:11;;;;;;;10.17;3.57;;;14.50;99.90;;;;;;5035728;28;20175;-72
2021/05/21 00:02:38;;;;;;;14.67;3.30;;;14.90;99.90;;;;;;5035521;28;20609;-73
2021/05/21 00:05:06;;;;;;;12.27;3.33;;;15.20;99.90;;;;;;5033943;28;20198;-72
2021/05/21 00:07:33;;;;;;;14.97;3.60;;;15.40;99.90;;;;;;5034622;28;20186;-71
2021/05/21 00:10:01;;;;;;;19.37;3.70;;;15.70;99.90;;;;;;5034856;28;20272;-72
2021/05/21 00:12:28;;;;;;;13.43;3.27;;;15.90;99.90;;;;;;5035012;28;20180;-73
2021/05/21 00:14:55;;;;;;;15.50;3.77;;;16.10;99.90;;;;;;5034720;28;20246;-72
2021/05/21 00:17:23;;;;;;;16.73;3.80;;;16.20;99.90;;;;;;5034635;28;20496;-71
2021/05/21 00:19:50;;;;;;;32.50;4.27;;;16.20;99.90;;;;;;5035054;28;20184;-73
2021/05/21 00:22:18;;;;;;;16.90;3.70;;;16.20;99.90;;;;;;5031648;28;20247;-73
2021/05/21 00:24:45;;;;;;;17.10;3.60;;;16.20;99.90;;;;;;5032994;28;20269;-75
2021/05/21 00:27:13;;;;;;;20.23;4.70;;;16.30;99.90;;;;;;5034572;28;20187;-70
2021/05/21 00:29:40;;;;;;;15.20;3.27;;;16.30;99.90;;;;;;5028494;28;20194;-70
2021/05/21 00:32:07;;;;;;;13.27;3.83;;;16.30;99.90;;;;;;5033586;28;20183;-70
2021/05/21 00:34:35;;;;;;;19.77;4.00;;;16.30;99.90;;;;;;5031443;28;20570;-71
2021/05/21 00:37:02;;;;;;;17.47;4.30;;;16.40;99.90;;;;;;5022738;28;20180;-72
2021/05/21 00:39:32;;;;;;;19.30;3.93;;;16.30;99.90;;;;;;5034084;28;20210;-71
2021/05/21 00:41:59;;;;;;;21.20;5.03;;;16.40;99.90;;;;;;5034299;28;20230;-72
2021/05/21 00:44:27;;;;;;;19.20;3.37;;;16.50;99.90;;;;;;5033615;28;20216;-70
2021/05/21 00:46:54;;;;;;;12.50;4.10;;;16.60;99.90;;;;;;5033926;28;20551;-76
2021/05/21 00:49:21;;;;;;;18.03;4.07;;;16.70;99.90;;;;;;5033802;28;20185;-71
2021/05/21 00:51:49;;;;;;;22.43;3.40;;;16.90;99.90;;;;;;5034032;28;20203;-73
2021/05/21 00:54:20;;;;;;;16.03;3.20;;;17.10;99.90;;;;;;5032202;28;20196;-72
2021/05/21 00:56:48;;;;;;;23.63;3.63;;;17.00;99.90;;;;;;5033269;28;20636;-70
2021/05/21 00:59:16;;;;;;;16.43;3.50;;;17.10;99.90;;;;;;5033811;28;20192;-70
2021/05/21 01:01:47;;;;;;;22.37;4.00;;;17.10;99.90;;;;;;5033585;28;20208;-77
2021/05/21 01:04:14;;;;;;;21.10;3.90;;;17.20;99.90;;;;;;5032827;28;20241;-70
2021/05/21 01:06:42;;;;;;;17.87;3.57;;;17.20;99.90;;;;;;5033332;28;20643;-71
2021/05/21 01:09:10;;;;;;;12.77;3.00;;;17.00;99.90;;;;;;5033551;28;20253;-71
2021/05/21 01:11:38;;;;;;;22.67;4.23;;;17.00;99.90;;;;;;5032459;28;20180;-71
2021/05/21 01:14:05;;;;;;;22.70;4.57;;;16.90;99.90;;;;;;5032828;28;20180;-72
2021/05/21 01:16:33;;;;;;;17.03;3.67;;;16.90;99.90;;;;;;5032978;28;20536;-71
2021/05/21 01:19:04;;;;;;;14.40;3.60;;;16.90;99.90;;;;;;5033140;28;20182;-74
2021/05/21 01:21:38;;;;;;;15.27;3.83;;;16.80;99.90;;;;;;5033469;28;20195;-72
2021/05/21 01:24:07;;;;;;;14.27;4.53;;;16.80;99.90;;;;;;5033301;28;20184;-72
2021/05/21 01:26:35;;;;;;;15.67;3.50;;;16.60;99.90;;;;;;5033000;28;20236;-73
2021/05/21 01:29:05;;;;;;;25.80;5.33;;;16.60;99.90;;;;;;5031942;28;20180;-70
2021/05/21 01:31:34;;;;;;;15.17;3.77;;;16.50;99.90;;;;;;5032275;28;20670;-71
2021/05/21 01:34:01;;;;;;;19.53;4.83;;;16.50;99.90;;;;;;5032707;28;20263;-74
2021/05/21 01:36:29;;;;;;;17.23;4.30;;;16.50;99.90;;;;;;5032868;28;20749;-72
2021/05/21 01:39:06;;;;;;;19.93;4.50;;;16.40;99.90;;;;;;5032460;28;20745;-71
2021/05/21 01:41:36;;;;;;;17.17;4.33;;;16.40;99.90;;;;;;5029081;28;20235;-72
2021/05/21 01:44:05;;;;;;;16.20;3.60;;;16.50;99.90;;;;;;5026290;28;20193;-73
2021/05/21 01:46:33;;;;;;;13.03;4.17;;;16.50;99.90;;;;;;5030724;28;20192;-70
2021/05/21 01:49:00;;;;;;;22.57;4.33;;;16.60;99.90;;;;;;5031735;28;20196;-75
2021/05/21 01:51:29;;;;;;;17.43;4.93;;;16.50;99.90;;;;;;5031826;28;20202;-72
2021/05/21 01:54:11;;;;;;;13.93;4.27;;;16.50;99.90;;;;;;5030675;28;20655;-72
2021/05/21 01:56:39;;;;;;;10.73;3.60;;;16.50;99.90;;;;;;5031611;28;20641;-75
2021/05/21 01:59:07;;;;;;;15.13;3.67;;;16.40;99.90;;;;;;5031738;28;20622;-72
2021/05/21 02:01:34;;;;;;;14.20;3.80;;;16.30;99.90;;;;;;5030984;28;20238;-72
2021/05/21 02:04:03;;;;;;;19.33;4.73;;;16.30;99.90;;;;;;5031594;28;20237;-75
2021/05/21 02:06:33;;;;;;;21.77;4.33;;;16.30;99.90;;;;;;5030726;28;20272;-73
2021/05/21 02:09:01;;;;;;;17.43;4.03;;;16.30;99.90;;;;;;5031133;28;20214;-73
2021/05/21 02:11:28;;;;;;;14.50;4.63;;;16.40;99.90;;;;;;5031085;28;20186;-73
2021/05/21 02:13:56;;;;;;;11.93;3.83;;;16.40;99.90;;;;;;5030457;28;20279;-72
2021/05/21 02:16:24;;;;;;;13.40;3.73;;;16.60;99.90;;;;;;5031374;28;20588;-70
2021/05/21 02:18:51;;;;;;;11.03;3.87;;;16.60;99.90;;;;;;5028143;28;20191;-70
2021/05/21 02:21:18;;;;;;;13.60;4.33;;;16.50;99.90;;;;;;5031542;28;20646;-70
2021/05/21 02:23:46;;;;;;;14.17;4.20;;;16.30;99.90;;;;;;5031100;28;20188;-70
2021/05/21 02:26:13;;;;;;;17.97;4.23;;;16.20;99.90;;;;;;5031192;28;20183;-70
2021/05/21 02:28:41;;;;;;;15.53;4.20;;;16.00;99.90;;;;;;5029050;28;20182;-70
2021/05/21 02:31:08;;;;;;;21.60;5.13;;;15.90;99.90;;;;;;5031088;28;20183;-71
2021/05/21 02:33:36;;;;;;;20.70;5.03;;;15.80;99.90;;;;;;5030778;28;20188;-71
2021/05/21 02:36:03;;;;;;;17.30;5.07;;;15.80;99.90;;;;;;5030805;28;20215;-71
2021/05/21 02:38:30;;;;;;;22.20;5.17;;;15.80;99.90;;;;;;5029896;28;20598;-70
2021/05/21 02:40:58;;;;;;;21.23;6.17;;;15.90;99.90;;;;;;5031324;28;20266;-71
2021/05/21 02:43:25;;;;;;;23.77;6.17;;;15.80;99.90;;;;;;5026189;28;20225;-71
2021/05/21 02:45:52;;;;;;;20.73;5.57;;;15.90;99.90;;;;;;5028151;28;20269;-71
2021/05/21 02:48:20;;;;;;;23.83;5.57;;;15.80;99.90;;;;;;5030381;28;20759;-71
2021/05/21 02:50:47;;;;;;;24.20;5.13;;;15.80;99.90;;;;;;5031202;28;20654;-71
2021/05/21 02:53:14;;;;;;;26.07;5.50;;;15.80;99.90;;;;;;5031037;28;20187;-71
2021/05/21 02:55:42;;;;;;;19.70;4.30;;;15.90;99.90;;;;;;5029275;28;20278;-69
2021/05/21 02:58:09;;;;;;;26.93;4.73;;;15.90;99.90;;;;;;5031235;28;20555;-70
2021/05/21 03:00:36;;;;;;;22.60;5.03;;;15.90;99.90;;;;;;5029421;28;20204;-70
2021/05/21 03:03:04;;;;;;;21.70;5.23;;;16.00;99.90;;;;;;5030783;28;20670;-71
2021/05/21 03:05:31;;;;;;;17.37;4.90;;;16.10;99.90;;;;;;5030590;28;20761;-70
2021/05/21 03:07:59;;;;;;;16.90;4.80;;;16.00;99.90;;;;;;5030689;28;20195;-71
2021/05/21 03:10:28;;;;;;;32.73;5.03;;;16.10;99.90;;;;;;5027170;28;20185;-72
2021/05/21 03:12:55;;;;;;;18.90;4.10;;;16.00;99.90;;;;;;5032002;28;20186;-70
2021/05/21 03:15:26;;;;;;;20.73;4.40;;;16.10;99.90;;;;;;5031528;28;20183;-70
2021/05/21 03:17:53;;;;;;;28.77;4.97;;;16.10;99.90;;;;;;5033740;28;20187;-71
2021/05/21 03:20:21;;;;;;;33.03;5.57;;;16.20;99.90;;;;;;5034908;28;20186;-70
2021/05/21 03:22:48;;;;;;;24.90;5.53;;;16.30;99.90;;;;;;5035516;28;20247;-69
2021/05/21 03:25:16;;;;;;;19.07;4.33;;;16.30;99.90;;;;;;5035584;28;20191;-70
2021/05/21 03:27:44;;;;;;;28.00;6.07;;;16.30;99.90;;;;;;5033419;28;20777;-69
2021/05/21 03:30:12;;;;;;;27.20;5.10;;;16.40;99.90;;;;;;5043699;28;20187;-70
2021/05/21 03:32:39;;;;;;;23.07;4.47;;;16.40;99.90;;;;;;5036041;28;20214;-71
2021/05/21 03:35:08;;;;;;;34.30;5.33;;;16.50;99.90;;;;;;5034393;28;20199;-69
2021/05/21 03:37:35;;;;;;;29.47;4.53;;;16.40;99.90;;;;;;5034949;28;20285;-70
2021/05/21 03:40:03;;;;;;;25.43;4.83;;;16.30;99.90;;;;;;5034748;28;20496;-70
2021/05/21 03:42:31;;;;;;;21.57;3.60;;;16.30;99.90;;;;;;5034997;28;20212;-71
2021/05/21 03:44:58;;;;;;;33.07;5.20;;;16.20;99.90;;;;;;5034741;28;20634;-70
2021/05/21 03:47:26;;;;;;;26.83;4.80;;;16.20;99.90;;;;;;5035077;28;20182;-70
2021/05/21 03:49:54;;;;;;;29.50;4.70;;;16.20;99.90;;;;;;5025380;28;20180;-70
2021/05/21 03:52:21;;;;;;;41.70;7.03;;;16.20;99.90;;;;;;5034615;28;20586;-70
2021/05/21 03:54:48;;;;;;;23.77;4.97;;;16.20;99.90;;;;;;5034150;28;20208;-69
2021/05/21 03:57:16;;;;;;;34.93;5.13;;;16.20;99.90;;;;;;5034882;28;20657;-70
2021/05/21 03:59:43;;;;;;;26.27;5.17;;;16.20;99.90;;;;;;5035039;28;20591;-70
2021/05/21 04:02:12;;;;;;;20.00;4.70;;;16.30;99.90;;;;;;5034326;28;20201;-70
2021/05/21 04:04:40;;;;;;;29.03;4.67;;;16.40;99.90;;;;;;5035114;28;20263;-70
2021/05/21 04:07:08;;;;;;;24.70;5.10;;;16.50;99.90;;;;;;5034144;28;20177;-70
2021/05/21 04:09:35;;;;;;;28.20;7.03;;;16.60;99.90;;;;;;5033522;28;20183;-70
2021/05/21 04:12:03;;;;;;;26.63;6.27;;;16.60;99.90;;;;;;5034710;28;20678;-69
2021/05/21 04:14:30;;;;;;;26.00;5.83;;;16.70;99.90;;;;;;5034078;28;20183;-70
2021/05/21 04:16:57;;;;;;;24.13;5.07;;;16.60;99.90;;;;;;5034987;28;20567;-69
2021/05/21 04:19:25;;;;;;;21.00;5.07;;;16.70;99.90;;;;;;5033889;28;20180;-68
2021/05/21 04:21:52;;;;;;;20.87;4.47;;;16.70;99.90;;;;;;5032503;28;20670;-70
2021/05/21 04:24:19;;;;;;;29.70;5.93;;;16.70;99.90;;;;;;5032969;28;20587;-69
2021/05/21 04:26:47;;;;;;;21.63;4.93;;;16.70;99.90;;;;;;5032929;28;20196;-69
2021/05/21 04:29:23;;;;;;;24.97;5.83;;;16.70;99.90;;;;;;5033535;28;20191;-70
2021/05/21 04:31:50;;;;;;;29.33;4.93;;;16.70;99.90;;;;;;5033854;28;20196;-70
2021/05/21 04:34:17;;;;;;;27.73;5.00;;;16.70;99.90;;;;;;5032721;28;20192;-69
2021/05/21 04:36:45;;;;;;;23.77;5.33;;;16.80;99.90;;;;;;5032047;28;20218;-71
2021/05/21 04:39:12;;;;;;;16.30;3.70;;;16.80;99.90;;;;;;5030317;28;20214;-72
2021/05/21 04:41:39;;;;;;;20.20;5.30;;;16.80;99.90;;;;;;5033949;28;20533;-71
2021/05/21 04:44:07;;;;;;;21.87;5.47;;;16.80;99.90;;;;;;5032087;28;20181;-71
2021/05/21 04:46:34;;;;;;;23.97;5.13;;;16.60;99.90;;;;;;5033682;28;20270;-72
2021/05/21 04:49:02;;;;;;;23.43;4.57;;;16.60;99.90;;;;;;5033497;28;20183;-72
2021/05/21 04:51:29;;;;;;;22.20;3.80;;;16.60;99.90;;;;;;5033951;28;20251;-71
2021/05/21 04:53:59;;;;;;;18.00;3.97;;;16.50;99.90;;;;;;5032899;28;20254;-70
2021/05/21 04:56:26;;;;;;;16.03;3.77;;;16.50;99.90;;;;;;5032191;28;20238;-70
2021/05/21 04:58:53;;;;;;;17.60;3.43;;;16.50;99.90;;;;;;5032103;28;20212;-70
2021/05/21 05:01:21;;;;;;;19.10;4.10;;;16.50;99.90;;;;;;5031393;28;20274;-71
2021/05/21 05:03:48;;;;;;;11.10;3.57;;;16.50;99.90;;;;;;5031435;28;20246;-71
2021/05/21 05:06:15;;;;;;;18.70;3.60;;;16.50;99.90;;;;;;5030685;28;20183;-70
2021/05/21 05:08:43;;;;;;;16.20;3.60;;;16.50;99.90;;;;;;5019735;28;20186;-71
2021/05/21 05:11:10;;;;;;;14.27;3.37;;;16.50;99.90;;;;;;5029208;28;20195;-70
2021/05/21 05:13:37;;;;;;;13.63;2.90;;;16.50;99.90;;;;;;5031729;28;20211;-71
2021/05/21 05:16:06;;;;;;;20.57;3.80;;;16.60;99.90;;;;;;5031490;28;20203;-69
2021/05/21 05:18:33;;;;;;;16.03;3.67;;;16.60;99.90;;;;;;5031956;28;20603;-70
2021/05/21 05:21:00;;;;;;;21.10;3.63;;;16.60;99.90;;;;;;5031954;28;20187;-69
2021/05/21 05:23:28;;;;;;;18.10;3.40;;;16.70;99.90;;;;;;5030299;28;20219;-69
2021/05/21 05:25:55;;;;;;;21.80;3.47;;;16.70;99.90;;;;;;5029923;28;20177;-70
2021/05/21 05:28:23;;;;;;;19.73;3.13;;;16.70;99.90;;;;;;5030598;28;20189;-69
2021/05/21 05:30:50;;;;;;;14.57;3.20;;;16.70;99.90;;;;;;5032293;28;20192;-69
2021/05/21 05:33:17;;;;;;;19.60;2.93;;;16.80;99.90;;;;;;5032730;28;20264;-74
2021/05/21 05:35:45;;;;;;;17.27;3.17;;;16.80;99.90;;;;;;5033243;28;20330;-73
2021/05/21 05:38:12;;;;;;;10.57;2.90;;;16.80;99.90;;;;;;5033322;28;20248;-69
2021/05/21 05:40:39;;;;;;;22.07;3.70;;;16.80;99.90;;;;;;5032283;28;20262;-70
2021/05/21 05:43:07;;;;;;;20.00;3.33;;;16.80;99.90;;;;;;5033090;28;20207;-70
2021/05/21 05:45:34;;;;;;;19.77;3.87;;;16.80;99.90;;;;;;5033059;28;20187;-70
2021/05/21 05:48:02;;;;;;;16.50;2.80;;;16.80;99.90;;;;;;5032719;28;20184;-71
2021/05/21 05:50:30;;;;;;;15.63;3.30;;;16.80;99.90;;;;;;5032740;28;20602;-70
2021/05/21 05:52:57;;;;;;;14.43;3.47;;;16.80;99.90;;;;;;5031944;28;20199;-68
2021/05/21 05:55:24;;;;;;;16.97;3.50;;;16.80;99.90;;;;;;5032642;28;20210;-73
2021/05/21 05:57:52;;;;;;;18.97;2.90;;;16.80;99.90;;;;;;5031515;28;20268;-69
2021/05/21 06:00:20;;;;;;;12.83;3.00;;;16.80;99.90;;;;;;5029855;28;20185;-70
2021/05/21 06:02:47;;;;;;;14.00;3.10;;;16.70;99.90;;;;;;5032894;28;20310;-71
2021/05/21 06:05:14;;;;;;;17.77;3.23;;;16.80;99.90;;;;;;5032176;28;20184;-74
2021/05/21 06:07:42;;;;;;;20.47;2.80;;;16.70;99.90;;;;;;5031497;28;20192;-73
2021/05/21 06:10:10;;;;;;;15.93;2.50;;;16.70;99.90;;;;;;5031763;28;20185;-69
2021/05/21 06:12:38;;;;;;;22.97;4.63;;;16.60;99.90;;;;;;5027519;28;20181;-69
2021/05/21 06:15:06;;;;;;;11.07;2.77;;;16.60;99.90;;;;;;5031029;28;20628;-71
2021/05/21 06:17:33;;;;;;;13.47;2.97;;;16.60;99.90;;;;;;5032374;28;20188;-69
2021/05/21 06:20:00;;;;;;;22.23;3.43;;;16.60;99.90;;;;;;5031913;28;20241;-72
2021/05/21 06:22:28;;;;;;;17.73;3.37;;;16.60;99.90;;;;;;5030787;28;20617;-73
2021/05/21 06:25:05;;;;;;;14.40;3.20;;;16.60;99.90;;;;;;5032272;28;20175;-72
2021/05/21 06:27:32;;;;;;;17.43;3.70;;;16.50;99.90;;;;;;5026532;28;20183;-71
2021/05/21 06:30:01;;;;;;;21.70;3.80;;;16.50;99.90;;;;;;5032094;28;20545;-71
2021/05/21 06:32:28;;;;;;;20.40;3.27;;;16.50;99.90;;;;;;5030940;28;20628;-71
2021/05/21 06:34:56;;;;;;;21.40;3.80;;;16.50;99.90;;;;;;5029886;28;20183;-72
2021/05/21 06:37:23;;;;;;;18.57;3.77;;;16.50;99.90;;;;;;5030521;28;20208;-71
2021/05/21 06:39:50;;;;;;;26.73;3.27;;;16.40;99.90;;;;;;5032072;28;20671;-73
2021/05/21 06:42:18;;;;;;;18.63;4.77;;;16.40;99.90;;;;;;5031680;28;20210;-74
2021/05/21 06:44:45;;;;;;;14.77;2.63;;;16.40;99.90;;;;;;5032124;28;20188;-74
2021/05/21 06:47:12;;;;;;;11.50;2.43;;;16.40;99.90;;;;;;5032299;28;20165;-73
2021/05/21 06:49:40;;;;;;;14.67;3.40;;;16.40;99.90;;;;;;5029861;28;20188;-72
2021/05/21 06:52:08;;;;;;;10.97;3.00;;;16.40;99.90;;;;;;5035427;28;20341;-74
2021/05/21 06:54:36;;;;;;;15.17;2.90;;;16.40;99.90;;;;;;5035664;28;20194;-72
2021/05/21 06:57:04;;;;;;;14.90;3.40;;;16.40;99.90;;;;;;5032100;28;20215;-71
2021/05/21 06:59:32;;;;;;;15.97;3.30;;;16.40;99.90;;;;;;5034175;28;20554;-73
2021/05/21 07:01:59;;;;;;;19.97;3.37;;;16.40;99.90;;;;;;5034537;28;20264;-74
2021/05/21 07:04:26;;;;;;;20.13;3.83;;;16.40;99.90;;;;;;5035762;28;20182;-73
2021/05/21 07:06:54;;;;;;;20.47;3.53;;;16.30;99.90;;;;;;5034965;28;20195;-70
2021/05/21 07:09:21;;;;;;;22.70;3.40;;;16.40;99.90;;;;;;5050009;28;20668;-74
2021/05/21 07:11:49;;;;;;;14.33;3.33;;;16.30;99.90;;;;;;5033330;28;20642;-70
2021/05/21 07:14:16;;;;;;;14.87;3.07;;;16.30;99.90;;;;;;5030516;28;20698;-70
2021/05/21 07:16:44;;;;;;;19.03;3.70;;;16.30;99.90;;;;;;5033383;28;20181;-68
2021/05/21 07:19:14;;;;;;;12.93;3.73;;;16.30;99.90;;;;;;5034796;28;20548;-70
2021/05/21 07:21:42;;;;;;;14.47;2.90;;;16.30;99.90;;;;;;5034404;28;20183;-72
2021/05/21 07:24:10;;;;;;;14.87;3.00;;;16.30;99.90;;;;;;5031698;28;20200;-72
2021/05/21 07:26:37;;;;;;;21.67;3.80;;;16.30;99.90;;;;;;5033357;28;20204;-76
2021/05/21 07:29:05;;;;;;;18.43;4.10;;;16.30;99.90;;;;;;5027929;28;20227;-74
2021/05/21 07:31:33;;;;;;;14.03;2.80;;;16.30;99.90;;;;;;5033658;28;20199;-69
2021/05/21 07:34:02;;;;;;;15.03;3.00;;;16.40;99.90;;;;;;5030632;28;20186;-73
2021/05/21 07:36:31;;;;;;;18.03;3.67;;;16.30;99.90;;;;;;5032040;28;20176;-72
2021/05/21 07:39:05;;;;;;;16.30;3.57;;;16.40;99.90;;;;;;5032441;28;20238;-73
2021/05/21 07:41:33;;;;;;;15.73;4.30;;;16.30;99.90;;;;;;5033057;28;20274;-71
2021/05/21 07:44:00;;;;;;;12.23;3.57;;;16.30;99.90;;;;;;5032293;28;20191;-71
2021/05/21 07:46:28;;;;;;;13.60;3.47;;;16.30;99.90;;;;;;5030702;28;20254;-71
2021/05/21 07:48:57;;;;;;;15.73;3.33;;;16.30;99.90;;;;;;5034842;28;20202;-74
2021/05/21 07:51:24;;;;;;;11.63;3.27;;;16.30;99.90;;;;;;5034419;28;20245;-71
2021/05/21 07:53:51;;;;;;;13.83;3.20;;;16.30;99.90;;;;;;5034879;28;20172;-70
2021/05/21 07:56:19;;;;;;;16.17;3.63;;;16.30;99.90;;;;;;5032587;28;20186;-70
2021/05/21 07:58:46;;;;;;;13.53;2.80;;;16.30;99.90;;;;;;5034498;28;20218;-71
2021/05/21 08:01:13;;;;;;;10.87;3.03;;;16.30;99.90;;;;;;5034102;28;20184;-71
2021/05/21 08:03:41;;;;;;;13.40;3.10;;;16.20;99.90;;;;;;5032060;28;20212;-69
2021/05/21 08:06:08;;;;;;;20.47;3.80;;;16.30;99.90;;;;;;5034339;28;20184;-70
2021/05/21 08:08:36;;;;;;;14.27;3.10;;;16.20;99.90;;;;;;5034415;28;20214;-71
2021/05/21 08:11:03;;;;;;;14.60;3.23;;;16.30;99.90;;;;;;5032114;28;20207;-70
2021/05/21 08:13:30;;;;;;;13.70;3.27;;;16.20;99.90;;;;;;5033737;28;20190;-72
2021/05/21 08:15:58;;;;;;;13.33;3.10;;;16.10;99.90;;;;;;5033115;28;20186;-72
2021/05/21 08:18:25;;;;;;;8.87;3.00;;;16.10;99.90;;;;;;5034020;28;20275;-72
2021/05/21 08:20:53;;;;;;;16.07;4.23;;;16.10;99.90;;;;;;5034298;28;20180;-70
2021/05/21 08:23:20;;;;;;;18.47;3.70;;;16.00;99.90;;;;;;5033838;28;20247;-70
2021/05/21 08:25:47;;;;;;;14.37;3.43;;;15.90;99.90;;;;;;5033157;28;20194;-71
2021/05/21 08:28:15;;;;;;;14.40;3.10;;;15.90;99.90;;;;;;5034325;28;20183;-71
2021/05/21 08:30:42;;;;;;;13.67;3.03;;;15.80;99.90;;;;;;5033931;28;20176;-69
2021/05/21 08:33:10;;;;;;;16.27;3.73;;;15.80;99.90;;;;;;5033307;28;20176;-71
2021/05/21 08:35:38;;;;;;;14.73;3.47;;;15.70;99.90;;;;;;5033697;28;20311;-68
2021/05/21 08:38:05;;;;;;;12.97;3.30;;;15.70;99.90;;;;;;5033917;28;20212;-70
2021/05/21 08:40:40;;;;;;;23.50;4.73;;;15.50;99.90;;;;;;5032205;28;20179;-69
2021/05/21 08:43:09;;;;;;;24.57;12.53;;;15.50;99.90;;;;;;5026837;28;20652;-69
2021/05/21 08:45:38;;;;;;;21.87;5.90;;;15.50;99.90;;;;;;5033544;28;20187;-70
2021/05/21 08:48:12;;;;;;;13.20;4.37;;;15.40;99.90;;;;;;5032394;28;20238;-69
2021/05/21 08:50:39;;;;;;;13.80;3.97;;;15.30;99.90;;;;;;5033055;28;20179;-69
2021/05/21 08:53:07;;;;;;;11.23;3.50;;;15.30;99.90;;;;;;5033557;28;20181;-68
2021/05/21 08:55:34;;;;;;;17.07;3.40;;;15.20;99.90;;;;;;5033565;28;20593;-69
2021/05/21 08:58:01;;;;;;;14.10;3.07;;;15.20;99.90;;;;;;5033051;28;20180;-69
2021/05/21 09:00:29;;;;;;;9.00;3.17;;;15.20;99.90;;;;;;5033324;28;20264;-69
2021/05/21 09:02:56;;;;;;;14.20;3.87;;;15.10;99.90;;;;;;5031443;28;20743;-69
2021/05/21 09:05:23;;;;;;;11.97;3.17;;;15.10;99.90;;;;;;5032880;28;20662;-69
2021/05/21 09:07:51;;;;;;;16.00;3.17;;;15.10;99.90;;;;;;5032132;28;20609;-70
2021/05/21 09:10:21;;;;;;;10.93;3.20;;;15.10;99.90;;;;;;5032368;28;20236;-70
2021/05/21 09:12:51;;;;;;;14.57;3.77;;;15.10;99.90;;;;;;5029552;28;20188;-69
2021/05/21 09:15:20;;;;;;;14.97;4.07;;;15.00;99.90;;;;;;5032274;28;20192;-69
2021/05/21 09:18:01;;;;;;;13.60;4.00;;;14.90;99.90;;;;;;5032087;28;20215;-69
2021/05/21 09:20:34;;;;;;;14.13;4.00;;;14.90;99.90;;;;;;5033052;28;20190;-70
2021/05/21 09:23:08;;;;;;;17.10;3.60;;;14.80;99.90;;;;;;5032560;28;20224;-71
2021/05/21 09:25:38;;;;;;;13.90;3.83;;;14.70;99.90;;;;;;5023931;28;20179;-70
2021/05/21 09:28:06;;;;;;;11.77;3.67;;;14.70;99.90;;;;;;5032009;28;20182;-69
2021/05/21 09:30:34;;;;;;;9.73;3.17;;;14.70;99.90;;;;;;5030015;28;20578;-70
2021/05/21 09:33:07;;;;;;;13.73;3.30;;;14.70;99.90;;;;;;5031632;28;20192;-71
2021/05/21 09:35:34;;;;;;;10.77;4.47;;;14.60;99.90;;;;;;5031941;28;20284;-69
2021/05/21 09:38:01;;;;;;;12.20;4.03;;;14.60;99.90;;;;;;5032332;28;20251;-70
2021/05/21 09:40:32;;;;;;;18.77;3.47;;;14.60;99.90;;;;;;5030983;28;20186;-71
2021/05/21 09:43:06;;;;;;;19.60;4.13;;;14.60;99.90;;;;;;5031945;28;20326;-69
2021/05/21 09:45:34;;;;;;;14.50;3.60;;;14.50;99.90;;;;;;5029908;28;20187;-69
2021/05/21 09:48:03;;;;;;;12.27;4.33;;;14.50;99.90;;;;;;5031664;28;20584;-70
2021/05/21 09:50:44;;;;;;;13.40;4.87;;;14.50;99.90;;;;;;5031818;28;20647;-68
2021/05/21 09:53:17;;;;;;;20.87;5.90;;;14.50;99.90;;;;;;5032187;28;20541;-71
2021/05/21 09:55:55;;;;;;;16.93;5.03;;;14.40;99.90;;;;;;5030013;28;20184;-69
2021/05/21 09:58:32;;;;;;;23.33;5.80;;;14.40;99.90;;;;;;5028979;28;20220;-70
2021/05/21 10:01:19;;;;;;;19.73;5.90;;;14.30;99.90;;;;;;5031938;28;20215;-71
2021/05/21 10:03:55;;;;;;;11.33;4.77;;;14.30;99.90;;;;;;5031204;28;20218;-70
2021/05/21 10:06:27;;;;;;;27.87;5.03;;;14.20;99.90;;;;;;5031810;28;20192;-71
2021/05/21 10:08:56;;;;;;;21.07;5.23;;;14.20;99.90;;;;;;5031704;28;20258;-71
2021/05/21 10:11:24;;;;;;;21.37;5.37;;;14.10;99.90;;;;;;5031832;28;20648;-70
2021/05/21 10:13:52;;;;;;;19.60;5.10;;;14.10;99.90;;;;;;5031317;28;20234;-72
2021/05/21 10:16:21;;;;;;;28.43;7.30;;;14.00;99.90;;;;;;5031479;28;20267;-71
2021/05/21 10:18:50;;;;;;;16.70;6.90;;;14.00;99.90;;;;;;5030856;28;20228;-72
2021/05/21 10:21:19;;;;;;;16.53;6.37;;;13.90;99.90;;;;;;5031728;28;20192;-72
2021/05/21 10:24:05;;;;;;;20.20;7.47;;;13.80;99.90;;;;;;5031471;28;20242;-73
2021/05/21 10:26:38;;;;;;;19.13;6.83;;;13.70;99.90;;;;;;5022941;28;20184;-70
2021/05/21 10:29:14;;;;;;;24.70;7.00;;;13.70;99.90;;;;;;5031825;28;20192;-71
2021/05/21 10:31:41;;;;;;;32.03;10.90;;;13.60;99.90;;;;;;5031827;28;20188;-69
2021/05/21 10:34:19;;;;;;;30.17;10.70;;;13.60;99.90;;;;;;5031220;28;20188;-71
2021/05/21 10:36:49;;;;;;;30.73;10.83;;;13.60;99.90;;;;;;5022416;28;20207;-69
2021/05/21 10:39:21;;;;;;;27.43;11.97;;;13.60;99.90;;;;;;5031753;28;20192;-69
2021/05/21 10:41:54;;;;;;;30.93;11.83;;;13.60;99.90;;;;;;5031058;28;20190;-70
2021/05/21 10:44:29;;;;;;;31.83;11.57;;;13.50;99.90;;;;;;5031411;28;20188;-70
2021/05/21 10:47:17;;;;;;;22.13;9.33;;;13.50;99.90;;;;;;5022406;28;20262;-71
2021/05/21 10:49:54;;;;;;;24.13;10.80;;;13.40;99.90;;;;;;5030983;28;20188;-70
2021/05/21 10:52:42;;;;;;;29.40;10.03;;;13.40;99.90;;;;;;5024609;28;20180;-69
2021/05/21 10:55:09;;;;;;;33.07;9.97;;;13.40;99.90;;;;;;5028562;28;20181;-70
2021/05/21 10:57:38;;;;;;;19.67;8.53;;;13.30;99.90;;;;;;5030507;28;20235;-70
2021/05/21 11:00:07;;;;;;;18.17;7.50;;;13.30;99.90;;;;;;5030792;28;20596;-71
2021/05/21 11:02:43;;;;;;;25.40;8.07;;;13.30;99.90;;;;;;5030638;28;20714;-70
2021/05/21 11:05:27;;;;;;;22.20;7.50;;;13.30;99.90;;;;;;5019718;28;20640;-71
2021/05/21 11:07:56;;;;;;;26.47;8.80;;;13.30;99.90;;;;;;5028318;28;20227;-70
2021/05/21 11:10:28;;;;;;;26.17;8.63;;;13.30;99.90;;;;;;5025742;28;20181;-69
2021/05/21 11:13:00;;;;;;;23.73;7.93;;;13.20;99.90;;;;;;5020139;28;20211;-70
2021/05/21 11:15:52;;;;;;;22.83;6.77;;;13.10;99.90;;;;;;5030968;28;20196;-69
2021/05/21 11:18:19;;;;;;;24.60;7.67;;;13.10;99.90;;;;;;5021890;28;20183;-70
2021/05/21 11:20:59;;;;;;;22.27;6.87;;;13.10;99.90;;;;;;5031295;28;20185;-70
2021/05/21 11:23:39;;;;;;;18.77;7.03;;;13.20;99.90;;;;;;5032083;28;20212;-70
2021/05/21 11:26:26;;;;;;;24.33;7.27;;;13.20;99.90;;;;;;5018485;28;20624;-70
2021/05/21 11:29:01;;;;;;;20.57;7.40;;;13.10;99.90;;;;;;5031711;28;20189;-69
2021/05/21 11:31:33;;;;;;;27.60;7.57;;;13.10;99.90;;;;;;5030730;28;20183;-70
2021/05/21 11:34:03;;;;;;;24.13;7.13;;;13.10;99.90;;;;;;5031410;28;20185;-69
2021/05/21 11:36:35;;;;;;;23.57;6.70;;;13.00;99.90;;;;;;5031346;28;20192;-70
2021/05/21 11:39:05;;;;;;;20.47;7.63;;;13.00;99.90;;;;;;5033652;28;20338;-70
2021/05/21 11:41:35;;;;;;;23.40;7.73;;;12.80;99.90;;;;;;5034894;28;20189;-70
2021/05/21 11:44:11;;;;;;;22.93;7.67;;;12.80;99.90;;;;;;5035434;28;20239;-71
2021/05/21 11:46:40;;;;;;;20.23;7.80;;;12.80;99.90;;;;;;5035081;28;20180;-70
2021/05/21 11:49:23;;;;;;;15.53;7.10;;;12.70;99.90;;;;;;5034970;28;20177;-70
2021/05/21 11:52:03;;;;;;;21.77;8.17;;;12.60;99.90;;;;;;5032503;28;20738;-69
2021/05/21 11:54:31;;;;;;;21.60;8.57;;;12.60;99.90;;;;;;5033409;28;20281;-70
2021/05/21 11:57:00;;;;;;;25.03;8.90;;;12.50;99.90;;;;;;5033024;28;20678;-70
2021/05/21 11:59:29;;;;;;;17.80;8.30;;;12.40;99.90;;;;;;5030523;28;20191;-69
2021/05/21 12:02:02;;;;;;;26.23;9.17;;;12.40;99.90;;;;;;5035234;28;20188;-70
2021/05/21 12:04:38;;;;;;;27.67;9.77;;;12.30;99.90;;;;;;5034464;28;20305;-69
2021/05/21 12:07:06;;;;;;;18.73;8.27;;;12.30;99.90;;;;;;5029353;28;20180;-71
2021/05/21 12:09:33;;;;;;;17.20;7.90;;;12.30;99.90;;;;;;5032730;28;20188;-71
2021/05/21 12:12:01;;;;;;;27.20;8.43;;;12.20;99.90;;;;;;5034628;28;20185;-70
2021/05/21 12:14:29;;;;;;;19.87;8.37;;;12.10;99.90;;;;;;5034451;28;20196;-72
2021/05/21 12:16:58;;;;;;;28.97;9.53;;;12.10;99.90;;;;;;5034575;28;20263;-72
2021/05/21 12:19:27;;;;;;;22.27;8.80;;;12.10;99.90;;;;;;5034415;28;20223;-70
2021/05/21 12:21:56;;;;;;;26.20;8.40;;;12.10;99.90;;;;;;5034903;28;20602;-71
2021/05/21 12:24:28;;;;;;;22.97;8.60;;;12.00;99.90;;;;;;5034425;28;20568;-70
2021/05/21 12:26:56;;;;;;;31.27;8.93;;;12.00;99.90;;;;;;5034357;28;20184;-72
2021/05/21 12:29:27;;;;;;;21.60;8.43;;;12.00;99.90;;;;;;5032765;28;20230;-74
2021/05/21 12:31:58;;;;;;;21.80;7.93;;;11.90;99.90;;;;;;5034497;28;20192;-71
2021/05/21 12:34:28;;;;;;;20.37;8.07;;;11.90;99.90;;;;;;5020384;28;20267;-72
2021/05/21 12:36:59;;;;;;;22.10;7.90;;;11.90;99.90;;;;;;5034573;28;20324;-71
2021/05/21 12:39:40;;;;;;;25.77;8.47;;;11.90;99.90;;;;;;5034255;28;20252;-72
2021/05/21 12:42:08;;;;;;;25.93;8.63;;;11.90;99.90;;;;;;5033493;28;20291;-73
2021/05/21 12:44:38;;;;;;;20.10;7.97;;;11.90;99.90;;;;;;5024480;28;20192;-72